createdAt,value
2022-11-29T00:00:16.037Z,20.79
2022-11-29T00:01:11.571Z,20.90
2022-11-29T00:02:07.253Z,20.88
2022-11-29T00:03:02.705Z,20.82
2022-11-29T00:03:58.158Z,20.83
2022-11-29T00:04:53.687Z,20.80
2022-11-29T00:05:49.210Z,20.85
2022-11-29T00:06:44.745Z,20.79
2022-11-29T00:07:40.330Z,20.82
2022-11-29T00:08:35.833Z,20.86
2022-11-29T00:09:31.340Z,20.82
2022-11-29T00:10:26.874Z,20.86
2022-11-29T00:11:22.405Z,20.77
2022-11-29T00:12:17.958Z,20.79
2022-11-29T00:13:13.488Z,20.85
2022-11-29T00:14:09.018Z,20.88
2022-11-29T00:15:04.549Z,20.82
2022-11-29T00:16:00.080Z,20.83
2022-11-29T00:16:55.695Z,20.85
2022-11-29T00:17:51.135Z,20.75
2022-11-29T00:18:46.679Z,20.86
2022-11-29T00:19:42.212Z,20.75
2022-11-29T00:20:37.732Z,20.89
2022-11-29T00:21:33.262Z,20.83
2022-11-29T00:22:28.791Z,20.80
2022-11-29T00:23:24.330Z,20.77
2022-11-29T00:24:19.871Z,20.88
2022-11-29T00:25:15.382Z,20.83
2022-11-29T00:26:10.909Z,20.86
2022-11-29T00:27:06.437Z,20.88
2022-11-29T00:28:01.980Z,20.80
2022-11-29T00:28:57.538Z,20.85
2022-11-29T00:29:53.064Z,20.70
2022-11-29T00:30:48.642Z,20.83
2022-11-29T00:31:44.156Z,20.79
2022-11-29T00:32:39.679Z,20.85
2022-11-29T00:33:35.213Z,20.77
2022-11-29T00:34:30.738Z,20.85
2022-11-29T00:35:26.286Z,20.75
2022-11-29T00:36:21.805Z,20.79
2022-11-29T00:37:17.338Z,20.80
2022-11-29T00:38:12.861Z,20.74
2022-11-29T00:39:08.393Z,20.83
2022-11-29T00:40:03.944Z,20.80
2022-11-29T00:40:59.456Z,20.67
2022-11-29T00:41:54.983Z,20.82
2022-11-29T00:42:50.528Z,20.74
2022-11-29T00:43:46.054Z,20.80
2022-11-29T00:44:41.884Z,20.77
2022-11-29T00:45:37.188Z,20.79
2022-11-29T00:46:32.681Z,20.79
2022-11-29T00:47:28.193Z,20.79
2022-11-29T00:48:23.714Z,20.73
2022-11-29T00:49:19.246Z,20.80
2022-11-29T00:50:14.775Z,20.70
2022-11-29T00:51:10.324Z,20.74
2022-11-29T00:52:05.853Z,20.74
2022-11-29T00:53:01.384Z,20.70
2022-11-29T00:53:56.922Z,20.77
2022-11-29T00:54:52.459Z,20.73
2022-11-29T00:55:48.010Z,20.75
2022-11-29T00:56:43.516Z,20.71
2022-11-29T00:57:39.046Z,20.73
2022-11-29T00:58:34.574Z,20.73
2022-11-29T00:59:30.102Z,20.74
2022-11-29T01:00:25.646Z,20.71
2022-11-29T01:01:21.227Z,20.71
2022-11-29T01:02:16.755Z,20.75
2022-11-29T01:03:12.252Z,20.70
2022-11-29T01:04:07.783Z,20.68
2022-11-29T01:05:03.311Z,20.71
2022-11-29T01:05:58.851Z,20.70
2022-11-29T01:06:54.391Z,20.74
2022-11-29T01:07:49.971Z,20.71
2022-11-29T01:08:45.463Z,20.73
2022-11-29T01:09:40.991Z,20.73
2022-11-29T01:10:36.528Z,20.71
2022-11-29T01:11:32.073Z,20.61
2022-11-29T01:12:27.586Z,20.73
2022-11-29T01:13:23.133Z,20.73
2022-11-29T01:14:18.652Z,20.70
2022-11-29T01:15:14.213Z,20.75
2022-11-29T01:16:09.742Z,20.68
2022-11-29T01:17:05.326Z,20.70
2022-11-29T01:18:00.810Z,20.68
2022-11-29T01:18:56.338Z,20.67
2022-11-29T01:19:51.867Z,20.64
2022-11-29T01:20:47.395Z,20.70
2022-11-29T01:21:42.921Z,20.65
2022-11-29T01:22:38.452Z,20.73
2022-11-29T01:23:33.971Z,20.64
2022-11-29T01:24:29.510Z,20.67
2022-11-29T01:25:25.037Z,20.58
2022-11-29T01:26:20.561Z,20.67
2022-11-29T01:27:16.108Z,20.71
2022-11-29T01:28:11.634Z,20.67
2022-11-29T01:29:07.171Z,20.63
2022-11-29T01:30:02.739Z,20.70
2022-11-29T01:30:58.281Z,20.64
2022-11-29T01:31:53.804Z,20.68
2022-11-29T01:32:49.332Z,20.65
2022-11-29T01:33:44.859Z,20.63
2022-11-29T01:34:40.392Z,20.61
2022-11-29T01:35:35.926Z,20.61
2022-11-29T01:36:31.455Z,20.58
2022-11-29T01:37:26.979Z,20.68
2022-11-29T01:38:22.505Z,20.63
2022-11-29T01:39:18.033Z,20.61
2022-11-29T01:40:13.569Z,20.61
2022-11-29T01:41:09.104Z,20.63
2022-11-29T01:42:04.632Z,20.63
2022-11-29T01:43:00.177Z,20.63
2022-11-29T01:43:55.697Z,20.60
2022-11-29T01:44:51.226Z,20.64
2022-11-29T01:45:46.811Z,20.61
2022-11-29T01:46:42.288Z,20.53
2022-11-29T01:47:37.814Z,20.64
2022-11-29T01:48:33.350Z,20.60
2022-11-29T01:49:28.876Z,20.63
2022-11-29T01:50:24.406Z,20.61
2022-11-29T01:51:19.946Z,20.58
2022-11-29T01:52:15.469Z,20.60
2022-11-29T01:53:11.003Z,20.61
2022-11-29T01:54:06.549Z,20.64
2022-11-29T01:55:02.072Z,20.64
2022-11-29T01:55:57.625Z,20.65
2022-11-29T01:56:53.114Z,20.67
2022-11-29T01:57:48.651Z,20.58
2022-11-29T01:58:44.191Z,20.61
2022-11-29T01:59:39.716Z,20.60
2022-11-29T02:00:35.236Z,20.61
2022-11-29T02:01:30.792Z,20.55
2022-11-29T02:02:26.369Z,20.61
2022-11-29T02:03:21.821Z,20.55
2022-11-29T02:04:17.346Z,20.65
2022-11-29T02:05:12.877Z,20.52
2022-11-29T02:06:08.419Z,20.50
2022-11-29T02:07:03.948Z,20.52
2022-11-29T02:07:59.554Z,20.58
2022-11-29T02:08:55.014Z,20.61
2022-11-29T02:09:50.569Z,20.60
2022-11-29T02:10:53.252Z,20.61
2022-11-29T02:11:48.783Z,20.60
2022-11-29T02:12:44.311Z,20.49
2022-11-29T02:13:39.846Z,20.60
2022-11-29T02:14:35.391Z,20.64
2022-11-29T02:15:31.028Z,20.64
2022-11-29T02:16:26.456Z,20.53
2022-11-29T02:17:21.998Z,20.58
2022-11-29T02:18:17.515Z,20.60
2022-11-29T02:19:13.043Z,20.60
2022-11-29T02:20:08.563Z,20.60
2022-11-29T02:21:04.107Z,20.60
2022-11-29T02:21:59.632Z,20.55
2022-11-29T02:22:55.162Z,20.61
2022-11-29T02:23:50.685Z,20.50
2022-11-29T02:24:46.408Z,20.53
2022-11-29T02:25:41.741Z,20.50
2022-11-29T02:26:37.270Z,20.60
2022-11-29T02:27:32.924Z,20.48
2022-11-29T02:28:28.329Z,20.44
2022-11-29T02:29:23.856Z,20.50
2022-11-29T02:30:08.544Z,20.49
2022-11-29T02:31:04.078Z,20.56
2022-11-29T02:31:59.602Z,20.48
2022-11-29T02:32:55.136Z,20.48
2022-11-29T02:33:50.669Z,20.53
2022-11-29T02:34:46.522Z,20.60
2022-11-29T02:35:41.730Z,20.61
2022-11-29T02:36:37.258Z,20.53
2022-11-29T02:37:32.835Z,20.53
2022-11-29T02:38:28.320Z,20.49
2022-11-29T02:39:23.844Z,20.49
2022-11-29T02:40:19.365Z,20.49
2022-11-29T02:41:14.897Z,20.61
2022-11-29T02:42:10.419Z,20.48
2022-11-29T02:43:05.959Z,20.44
2022-11-29T02:44:01.494Z,20.49
2022-11-29T02:44:57.025Z,20.49
2022-11-29T02:45:52.583Z,20.49
2022-11-29T02:46:48.082Z,20.50
2022-11-29T02:47:43.610Z,20.46
2022-11-29T02:48:39.146Z,20.55
2022-11-29T02:49:34.675Z,20.53
2022-11-29T02:50:30.205Z,20.49
2022-11-29T02:51:25.742Z,20.50
2022-11-29T02:52:21.274Z,20.44
2022-11-29T02:53:16.819Z,20.46
2022-11-29T02:54:12.331Z,20.44
2022-11-29T02:55:07.856Z,20.48
2022-11-29T02:56:03.399Z,20.49
2022-11-29T02:56:58.925Z,20.42
2022-11-29T02:57:54.451Z,20.44
2022-11-29T02:58:49.985Z,20.50
2022-11-29T02:59:45.503Z,20.48
2022-11-29T03:00:41.033Z,20.52
2022-11-29T03:01:36.673Z,20.49
2022-11-29T03:02:32.172Z,20.48
2022-11-29T03:03:27.623Z,20.48
2022-11-29T03:04:23.156Z,20.53
2022-11-29T03:05:18.690Z,20.48
2022-11-29T03:06:14.219Z,20.48
2022-11-29T03:07:09.745Z,20.52
2022-11-29T03:08:05.275Z,20.44
2022-11-29T03:09:00.811Z,20.46
2022-11-29T03:09:56.338Z,20.48
2022-11-29T03:10:51.864Z,20.44
2022-11-29T03:11:47.400Z,20.42
2022-11-29T03:12:42.930Z,20.49
2022-11-29T03:13:38.470Z,20.42
2022-11-29T03:14:35.012Z,20.46
2022-11-29T03:15:30.662Z,20.39
2022-11-29T03:16:26.061Z,20.32
2022-11-29T03:17:21.612Z,20.46
2022-11-29T03:18:17.123Z,20.48
2022-11-29T03:19:12.647Z,20.44
2022-11-29T03:20:08.180Z,20.44
2022-11-29T03:21:03.718Z,20.46
2022-11-29T03:21:59.247Z,20.46
2022-11-29T03:22:54.775Z,20.34
2022-11-29T03:23:50.307Z,20.49
2022-11-29T03:24:46.135Z,20.44
2022-11-29T03:25:41.366Z,20.50
2022-11-29T03:26:36.896Z,20.48
2022-11-29T03:27:32.425Z,20.46
2022-11-29T03:28:27.959Z,20.46
2022-11-29T03:29:23.497Z,20.32
2022-11-29T03:30:19.020Z,20.36
2022-11-29T03:31:14.579Z,20.32
2022-11-29T03:32:10.081Z,20.42
2022-11-29T03:33:05.624Z,20.41
2022-11-29T03:34:01.133Z,20.44
2022-11-29T03:34:57.634Z,20.34
2022-11-29T03:35:52.189Z,20.34
2022-11-29T03:36:47.722Z,20.34
2022-11-29T03:37:43.243Z,20.32
2022-11-29T03:38:38.771Z,20.32
2022-11-29T03:39:34.307Z,20.30
2022-11-29T03:40:29.840Z,20.36
2022-11-29T03:41:25.374Z,20.41
2022-11-29T03:42:20.907Z,20.33
2022-11-29T03:43:16.442Z,20.34
2022-11-29T03:44:11.964Z,20.34
2022-11-29T03:45:07.494Z,20.36
2022-11-29T03:46:03.066Z,20.36
2022-11-29T03:46:58.562Z,20.36
2022-11-29T03:47:54.088Z,20.36
2022-11-29T03:48:49.641Z,20.37
2022-11-29T03:49:45.153Z,20.37
2022-11-29T03:50:40.682Z,20.33
2022-11-29T03:51:36.223Z,20.36
2022-11-29T03:52:31.737Z,20.34
2022-11-29T03:53:27.265Z,20.30
2022-11-29T03:54:22.794Z,20.36
2022-11-29T03:55:18.325Z,20.37
2022-11-29T03:56:13.846Z,20.39
2022-11-29T03:57:09.384Z,20.34
2022-11-29T03:58:04.909Z,20.41
2022-11-29T03:59:00.439Z,20.37
2022-11-29T03:59:55.957Z,20.37
2022-11-29T04:00:51.480Z,20.33
2022-11-29T04:01:47.095Z,20.32
2022-11-29T04:02:42.599Z,20.39
2022-11-29T04:03:38.088Z,20.34
2022-11-29T04:04:33.677Z,20.37
2022-11-29T04:05:29.154Z,20.37
2022-11-29T04:06:24.681Z,20.34
2022-11-29T04:07:20.271Z,20.36
2022-11-29T04:08:15.745Z,20.39
2022-11-29T04:09:11.275Z,20.33
2022-11-29T04:10:21.954Z,20.36
2022-11-29T04:11:17.484Z,20.41
2022-11-29T04:12:13.014Z,20.34
2022-11-29T04:13:08.538Z,20.34
2022-11-29T04:14:04.067Z,20.33
2022-11-29T04:14:59.585Z,20.34
2022-11-29T04:15:55.175Z,20.27
2022-11-29T04:16:50.655Z,20.26
2022-11-29T04:17:46.186Z,20.29
2022-11-29T04:18:41.716Z,20.33
2022-11-29T04:19:37.270Z,20.33
2022-11-29T04:20:36.291Z,20.34
2022-11-29T04:21:28.315Z,20.32
2022-11-29T04:22:24.081Z,20.34
2022-11-29T04:23:19.616Z,20.33
2022-11-29T04:24:15.145Z,20.33
2022-11-29T04:25:10.674Z,20.33
2022-11-29T04:26:06.203Z,20.29
2022-11-29T04:27:01.739Z,20.23
2022-11-29T04:27:57.262Z,20.39
2022-11-29T04:28:52.778Z,20.33
2022-11-29T04:29:48.303Z,20.33
2022-11-29T04:30:43.835Z,20.26
2022-11-29T04:31:39.372Z,20.34
2022-11-29T04:32:34.909Z,20.26
2022-11-29T04:33:30.441Z,20.26
2022-11-29T04:34:25.970Z,20.25
2022-11-29T04:35:21.537Z,20.33
2022-11-29T04:36:17.047Z,20.27
2022-11-29T04:37:12.580Z,20.22
2022-11-29T04:38:08.140Z,20.32
2022-11-29T04:39:03.673Z,20.33
2022-11-29T04:39:59.205Z,20.27
2022-11-29T04:40:54.726Z,20.30
2022-11-29T04:41:50.254Z,20.32
2022-11-29T04:42:45.788Z,20.34
2022-11-29T04:43:41.326Z,20.27
2022-11-29T04:44:36.875Z,20.34
2022-11-29T04:45:32.386Z,20.37
2022-11-29T04:46:27.959Z,20.36
2022-11-29T04:47:23.440Z,20.33
2022-11-29T04:48:18.983Z,20.48
2022-11-29T04:49:14.541Z,20.49
2022-11-29T04:50:10.072Z,20.48
2022-11-29T04:51:05.616Z,20.49
2022-11-29T04:52:01.131Z,20.60
2022-11-29T04:52:56.659Z,20.50
2022-11-29T04:53:52.187Z,20.60
2022-11-29T04:54:47.797Z,20.60
2022-11-29T04:55:43.247Z,20.58
2022-11-29T04:56:38.771Z,20.63
2022-11-29T04:57:34.301Z,20.63
2022-11-29T04:58:29.828Z,20.63
2022-11-29T04:59:25.364Z,20.71
2022-11-29T05:00:20.904Z,20.73
2022-11-29T05:01:16.470Z,20.71
2022-11-29T05:02:11.965Z,20.75
2022-11-29T05:03:07.522Z,20.73
2022-11-29T05:04:03.023Z,20.73
2022-11-29T05:04:58.558Z,20.75
2022-11-29T05:05:54.085Z,20.79
2022-11-29T05:06:49.636Z,20.75
2022-11-29T05:07:45.222Z,20.80
2022-11-29T05:08:40.691Z,20.80
2022-11-29T05:09:36.220Z,20.80
2022-11-29T05:10:31.750Z,20.92
2022-11-29T05:11:27.286Z,20.85
2022-11-29T05:12:22.813Z,20.80
2022-11-29T05:13:18.344Z,20.80
2022-11-29T05:14:13.871Z,20.79
2022-11-29T05:15:09.400Z,20.75
2022-11-29T05:16:04.986Z,20.79
2022-11-29T05:17:11.978Z,20.79
2022-11-29T05:18:07.529Z,20.83
2022-11-29T05:19:03.071Z,20.85
2022-11-29T05:19:58.606Z,20.83
2022-11-29T05:20:54.151Z,20.83
2022-11-29T05:21:49.683Z,20.88
2022-11-29T05:22:45.255Z,20.88
2022-11-29T05:23:40.758Z,20.82
2022-11-29T05:24:36.298Z,20.83
2022-11-29T05:25:31.838Z,20.82
2022-11-29T05:26:27.374Z,20.85
2022-11-29T05:27:22.904Z,20.89
2022-11-29T05:28:18.467Z,20.88
2022-11-29T05:29:13.994Z,20.93
2022-11-29T05:30:09.524Z,20.97
2022-11-29T05:31:05.152Z,21.00
2022-11-29T05:32:00.594Z,21.00
2022-11-29T05:32:56.132Z,21.00
2022-11-29T05:33:51.681Z,21.05
2022-11-29T05:34:47.537Z,21.01
2022-11-29T05:35:42.760Z,21.01
2022-11-29T05:36:38.307Z,21.01
2022-11-29T05:37:33.851Z,21.03
2022-11-29T05:38:29.411Z,21.07
2022-11-29T05:39:24.939Z,21.05
2022-11-29T05:40:20.458Z,21.03
2022-11-29T05:41:16.002Z,21.07
2022-11-29T05:42:11.529Z,21.05
2022-11-29T05:43:07.068Z,20.98
2022-11-29T05:44:02.596Z,21.10
2022-11-29T05:44:58.137Z,21.03
2022-11-29T05:45:53.681Z,21.11
2022-11-29T05:46:49.252Z,21.04
2022-11-29T05:47:44.756Z,21.10
2022-11-29T05:48:40.295Z,21.10
2022-11-29T05:49:35.825Z,21.08
2022-11-29T05:50:31.374Z,21.04
2022-11-29T05:51:26.917Z,21.03
2022-11-29T05:52:22.439Z,21.08
2022-11-29T05:53:17.984Z,21.04
2022-11-29T05:54:13.535Z,20.97
2022-11-29T05:55:09.062Z,21.10
2022-11-29T05:56:04.596Z,21.07
2022-11-29T05:57:00.148Z,21.08
2022-11-29T05:57:55.685Z,21.11
2022-11-29T05:58:51.215Z,21.04
2022-11-29T05:59:47.242Z,21.14
2022-11-29T06:00:42.804Z,21.11
2022-11-29T06:01:38.394Z,21.20
2022-11-29T06:02:33.910Z,21.18
2022-11-29T06:03:29.404Z,21.16
2022-11-29T06:04:24.947Z,21.28
2022-11-29T06:05:20.476Z,21.26
2022-11-29T06:06:16.024Z,21.29
2022-11-29T06:07:11.567Z,21.28
2022-11-29T06:08:07.130Z,21.25
2022-11-29T06:09:02.649Z,21.23
2022-11-29T06:10:01.617Z,21.28
2022-11-29T06:10:53.735Z,21.28
2022-11-29T06:11:49.314Z,21.22
2022-11-29T06:12:44.849Z,21.28
2022-11-29T06:13:40.380Z,21.25
2022-11-29T06:14:36.419Z,21.30
2022-11-29T06:15:31.961Z,21.34
2022-11-29T06:16:27.552Z,21.26
2022-11-29T06:17:23.044Z,21.29
2022-11-29T06:18:18.581Z,21.25
2022-11-29T06:19:14.121Z,21.26
2022-11-29T06:20:09.661Z,21.30
2022-11-29T06:21:05.185Z,21.22
2022-11-29T06:22:00.749Z,21.25
2022-11-29T06:22:56.285Z,21.29
2022-11-29T06:23:52.302Z,21.18
2022-11-29T06:24:47.963Z,21.22
2022-11-29T06:25:43.390Z,21.26
2022-11-29T06:26:38.904Z,21.19
2022-11-29T06:27:34.448Z,21.29
2022-11-29T06:28:29.979Z,21.29
2022-11-29T06:29:25.537Z,21.28
2022-11-29T06:30:21.092Z,21.22
2022-11-29T06:31:16.633Z,21.07
2022-11-29T06:32:12.637Z,21.19
2022-11-29T06:33:08.178Z,21.18
2022-11-29T06:34:03.713Z,21.22
2022-11-29T06:34:59.743Z,21.20
2022-11-29T06:35:55.314Z,21.25
2022-11-29T06:36:50.858Z,21.20
2022-11-29T06:37:46.904Z,21.26
2022-11-29T06:38:42.448Z,21.14
2022-11-29T06:39:37.996Z,21.16
2022-11-29T06:40:33.544Z,21.26
2022-11-29T06:41:29.101Z,21.23
2022-11-29T06:42:24.613Z,21.14
2022-11-29T06:43:20.152Z,21.13
2022-11-29T06:44:15.685Z,21.10
2022-11-29T06:45:11.228Z,21.10
2022-11-29T06:46:07.259Z,21.05
2022-11-29T06:47:02.854Z,21.14
2022-11-29T06:47:58.366Z,21.14
2022-11-29T06:48:57.824Z,21.10
2022-11-29T06:49:49.938Z,21.10
2022-11-29T06:50:45.488Z,21.08
2022-11-29T06:51:41.017Z,21.11
2022-11-29T06:52:36.543Z,21.19
2022-11-29T06:53:32.090Z,21.11
2022-11-29T06:54:27.641Z,21.20
2022-11-29T06:55:23.189Z,21.18
2022-11-29T06:56:18.719Z,21.20
2022-11-29T06:57:14.320Z,21.18
2022-11-29T06:58:09.793Z,21.32
2022-11-29T06:59:05.347Z,21.25
2022-11-29T07:00:00.919Z,21.26
2022-11-29T07:00:56.535Z,21.22
2022-11-29T07:01:52.046Z,21.22
2022-11-29T07:02:47.532Z,21.20
2022-11-29T07:03:43.063Z,21.19
2022-11-29T07:04:44.135Z,21.20
2022-11-29T07:05:34.147Z,21.20
2022-11-29T07:06:29.688Z,21.19
2022-11-29T07:07:25.304Z,21.13
2022-11-29T07:08:20.762Z,21.11
2022-11-29T07:09:16.302Z,21.18
2022-11-29T07:10:14.853Z,21.07
2022-11-29T07:11:07.367Z,21.04
2022-11-29T07:12:02.915Z,21.14
2022-11-29T07:12:58.471Z,21.05
2022-11-29T07:13:54.064Z,21.13
2022-11-29T07:14:49.617Z,21.13
2022-11-29T07:15:45.158Z,21.13
2022-11-29T07:16:40.836Z,21.19
2022-11-29T07:17:36.265Z,21.19
2022-11-29T07:18:31.804Z,21.14
2022-11-29T07:19:27.342Z,21.20
2022-11-29T07:20:22.888Z,21.22
2022-11-29T07:21:18.427Z,21.23
2022-11-29T07:22:13.971Z,21.25
2022-11-29T07:23:09.515Z,21.26
2022-11-29T07:24:05.070Z,21.35
2022-11-29T07:25:00.615Z,21.26
2022-11-29T07:25:56.147Z,21.29
2022-11-29T07:26:55.212Z,21.34
2022-11-29T07:27:47.213Z,21.28
2022-11-29T07:28:42.779Z,21.38
2022-11-29T07:29:38.301Z,21.32
2022-11-29T07:30:33.838Z,21.40
2022-11-29T07:31:29.445Z,21.38
2022-11-29T07:32:24.943Z,21.38
2022-11-29T07:33:20.477Z,21.38
2022-11-29T07:34:16.021Z,21.38
2022-11-29T07:35:11.555Z,21.37
2022-11-29T07:36:07.094Z,21.32
2022-11-29T07:37:02.636Z,21.38
2022-11-29T07:37:58.166Z,21.35
2022-11-29T07:38:53.703Z,21.30
2022-11-29T07:39:49.251Z,21.38
2022-11-29T07:40:44.807Z,21.30
2022-11-29T07:41:40.343Z,21.40
2022-11-29T07:42:35.900Z,21.32
2022-11-29T07:43:31.419Z,21.41
2022-11-29T07:44:26.975Z,21.38
2022-11-29T07:45:22.494Z,21.35
2022-11-29T07:46:18.057Z,21.26
2022-11-29T07:47:13.577Z,21.30
2022-11-29T07:48:09.106Z,21.34
2022-11-29T07:49:04.644Z,21.35
2022-11-29T07:49:49.307Z,21.40
2022-11-29T07:50:44.842Z,21.30
2022-11-29T07:51:40.388Z,21.37
2022-11-29T07:52:35.936Z,21.23
2022-11-29T07:53:31.473Z,21.38
2022-11-29T07:54:27.033Z,21.25
2022-11-29T07:55:22.586Z,20.93
2022-11-29T07:56:18.126Z,20.86
2022-11-29T07:57:13.654Z,20.97
2022-11-29T07:58:09.196Z,21.08
2022-11-29T07:59:04.780Z,21.05
2022-11-29T08:00:00.302Z,21.13
2022-11-29T08:00:55.896Z,21.07
2022-11-29T08:01:51.473Z,21.11
2022-11-29T08:02:46.896Z,21.18
2022-11-29T08:03:42.436Z,21.22
2022-11-29T08:04:37.976Z,21.18
2022-11-29T08:05:33.524Z,21.23
2022-11-29T08:06:29.060Z,21.22
2022-11-29T08:07:24.641Z,21.29
2022-11-29T08:08:20.235Z,21.29
2022-11-29T08:09:15.778Z,21.25
2022-11-29T08:10:11.306Z,21.28
2022-11-29T08:11:06.848Z,21.19
2022-11-29T08:12:09.572Z,21.20
2022-11-29T08:13:05.112Z,21.13
2022-11-29T08:14:00.684Z,21.18
2022-11-29T08:14:56.244Z,21.19
2022-11-29T08:15:51.826Z,21.29
2022-11-29T08:16:47.378Z,21.18
2022-11-29T08:17:42.935Z,21.28
2022-11-29T08:18:27.605Z,21.20
2022-11-29T08:19:23.160Z,21.29
2022-11-29T08:20:07.849Z,21.23
2022-11-29T08:21:03.411Z,21.25
2022-11-29T08:21:58.952Z,21.28
2022-11-29T08:22:54.540Z,21.23
2022-11-29T08:23:50.167Z,21.26
2022-11-29T08:24:45.996Z,21.26
2022-11-29T08:25:41.285Z,21.18
2022-11-29T08:26:36.845Z,21.10
2022-11-29T08:27:32.387Z,21.16
2022-11-29T08:28:27.972Z,21.10
2022-11-29T08:29:23.518Z,21.10
2022-11-29T08:30:19.049Z,21.00
2022-11-29T08:31:14.718Z,21.08
2022-11-29T08:31:59.356Z,21.05
2022-11-29T08:32:54.810Z,21.04
2022-11-29T08:33:50.362Z,21.00
2022-11-29T08:34:46.263Z,21.10
2022-11-29T08:35:41.463Z,21.05
2022-11-29T08:36:25.933Z,21.14
2022-11-29T08:37:10.414Z,21.13
2022-11-29T08:38:17.018Z,21.14
2022-11-29T08:39:12.552Z,21.07
2022-11-29T08:40:08.120Z,21.14
2022-11-29T08:41:03.679Z,21.08
2022-11-29T08:41:59.222Z,21.08
2022-11-29T08:42:54.767Z,21.07
2022-11-29T08:43:50.317Z,21.03
2022-11-29T08:44:46.257Z,21.11
2022-11-29T08:45:30.593Z,21.13
2022-11-29T08:46:26.111Z,21.14
2022-11-29T08:47:21.621Z,21.11
2022-11-29T08:48:17.160Z,21.14
2022-11-29T08:49:13.295Z,21.18
2022-11-29T08:50:08.850Z,21.18
2022-11-29T08:51:04.430Z,21.08
2022-11-29T08:51:59.990Z,21.10
2022-11-29T08:52:55.552Z,21.20
2022-11-29T08:53:51.108Z,21.16
2022-11-29T08:54:35.765Z,21.13
2022-11-29T08:55:31.329Z,21.19
2022-11-29T08:58:06.892Z,21.05
2022-11-29T08:59:13.481Z,21.08
2022-11-29T09:00:09.041Z,21.11
2022-11-29T09:00:53.572Z,21.14
2022-11-29T09:01:49.165Z,21.08
2022-11-29T09:02:44.621Z,21.04
2022-11-29T09:03:40.167Z,21.07
2022-11-29T09:04:47.013Z,21.03
2022-11-29T09:05:31.266Z,20.95
2022-11-29T09:06:26.810Z,21.00
2022-11-29T09:07:22.366Z,21.01
2022-11-29T09:08:06.843Z,20.97
2022-11-29T09:09:13.468Z,20.92
2022-11-29T09:10:09.113Z,20.98
2022-11-29T09:10:53.583Z,21.07
2022-11-29T09:11:49.753Z,21.01
2022-11-29T09:12:44.725Z,21.04
2022-11-29T09:13:40.774Z,20.97
2022-11-29T09:14:25.244Z,21.04
2022-11-29T09:15:20.783Z,21.10
2022-11-29T09:16:16.394Z,21.13
2022-11-29T09:17:11.879Z,21.05
2022-11-29T09:18:07.395Z,21.07
2022-11-29T09:18:52.407Z,21.10
2022-11-29T09:19:47.949Z,21.07
2022-11-29T09:20:32.614Z,21.11
2022-11-29T09:21:28.650Z,21.14
2022-11-29T09:22:24.199Z,21.10
2022-11-29T09:23:08.665Z,21.14
2022-11-29T09:24:15.279Z,21.05
2022-11-29T09:24:59.831Z,21.05
2022-11-29T09:26:06.433Z,21.10
2022-11-29T09:27:01.975Z,21.05
2022-11-29T09:27:46.440Z,21.10
2022-11-29T09:28:53.052Z,21.13
2022-11-29T09:29:37.537Z,21.07
2022-11-29T09:30:33.089Z,21.08
2022-11-29T09:31:28.647Z,21.08
2022-11-29T09:32:35.250Z,21.05
2022-11-29T09:33:30.758Z,21.05
2022-11-29T09:34:26.298Z,21.13
2022-11-29T09:35:21.849Z,21.07
2022-11-29T09:36:17.470Z,21.11
2022-11-29T09:37:01.923Z,21.13
2022-11-29T09:37:57.455Z,21.32
2022-11-29T09:39:04.081Z,21.28
2022-11-29T09:39:59.619Z,21.30
2022-11-29T09:40:55.166Z,21.40
2022-11-29T09:41:50.722Z,21.37
2022-11-29T09:42:46.261Z,21.38
2022-11-29T09:43:41.803Z,21.41
2022-11-29T09:44:37.351Z,21.40
2022-11-29T09:45:32.957Z,21.37
2022-11-29T09:46:17.601Z,21.37
2022-11-29T09:47:13.108Z,21.38
2022-11-29T09:48:08.677Z,21.32
2022-11-29T09:49:04.692Z,21.35
2022-11-29T09:50:00.222Z,21.34
2022-11-29T09:50:55.764Z,21.32
2022-11-29T09:51:51.802Z,21.38
2022-11-29T09:52:47.347Z,21.23
2022-11-29T09:53:42.888Z,21.34
2022-11-29T09:54:38.437Z,21.40
2022-11-29T09:55:33.996Z,21.40
2022-11-29T09:56:30.034Z,21.45
2022-11-29T09:57:25.590Z,21.40
2022-11-29T09:58:21.134Z,21.35
2022-11-29T09:59:16.680Z,21.44
2022-11-29T10:00:12.237Z,21.30
2022-11-29T10:01:07.835Z,21.37
2022-11-29T10:02:03.374Z,21.26
2022-11-29T10:02:58.893Z,21.40
2022-11-29T10:03:54.471Z,21.40
2022-11-29T10:04:50.476Z,21.37
2022-11-29T10:05:34.943Z,21.37
2022-11-29T10:06:30.499Z,21.43
2022-11-29T10:07:26.079Z,21.34
2022-11-29T10:08:21.587Z,21.29
2022-11-29T10:09:17.148Z,21.29
2022-11-29T10:10:12.685Z,21.26
2022-11-29T10:11:08.224Z,21.26
2022-11-29T10:12:03.765Z,21.28
2022-11-29T10:12:59.312Z,21.40
2022-11-29T10:13:54.865Z,21.29
2022-11-29T10:14:50.987Z,21.30
2022-11-29T10:15:46.488Z,21.26
2022-11-29T10:16:42.082Z,21.28
2022-11-29T10:17:38.075Z,21.34
2022-11-29T10:18:33.601Z,21.23
2022-11-29T10:19:29.165Z,21.26
2022-11-29T10:20:25.177Z,21.25
2022-11-29T10:21:20.717Z,21.29
2022-11-29T10:22:16.257Z,21.19
2022-11-29T10:23:11.821Z,21.23
2022-11-29T10:24:07.374Z,21.30
2022-11-29T10:25:03.410Z,21.30
2022-11-29T10:25:58.950Z,21.28
2022-11-29T10:26:54.500Z,21.23
2022-11-29T10:27:50.528Z,21.28
2022-11-29T10:28:46.076Z,21.26
2022-11-29T10:29:41.624Z,21.28
2022-11-29T10:30:37.214Z,21.29
2022-11-29T10:31:32.709Z,21.30
2022-11-29T10:32:28.251Z,21.26
2022-11-29T10:33:23.795Z,21.25
2022-11-29T10:34:08.463Z,21.40
2022-11-29T10:35:04.012Z,21.34
2022-11-29T10:35:59.545Z,21.38
2022-11-29T10:36:55.608Z,21.41
2022-11-29T10:38:14.661Z,21.38
2022-11-29T10:38:47.178Z,21.43
2022-11-29T10:39:42.729Z,21.37
2022-11-29T10:40:38.274Z,21.41
2022-11-29T10:41:33.814Z,21.41
2022-11-29T10:42:29.371Z,21.35
2022-11-29T10:43:24.900Z,21.43
2022-11-29T10:44:20.442Z,21.41
2022-11-29T10:45:15.982Z,21.35
2022-11-29T10:46:11.565Z,21.40
2022-11-29T10:46:56.184Z,21.40
2022-11-29T10:47:51.729Z,21.26
2022-11-29T10:48:47.277Z,21.40
2022-11-29T10:49:43.318Z,21.40
2022-11-29T10:50:38.886Z,21.40
2022-11-29T10:51:34.406Z,21.26
2022-11-29T10:52:30.438Z,21.41
2022-11-29T10:53:25.983Z,21.25
2022-11-29T10:54:21.521Z,21.40
2022-11-29T10:55:17.552Z,21.30
2022-11-29T10:56:13.100Z,21.35
2022-11-29T10:57:08.653Z,21.38
2022-11-29T10:58:04.193Z,21.43
2022-11-29T10:59:00.231Z,21.32
2022-11-29T10:59:55.777Z,21.41
2022-11-29T11:00:51.897Z,21.47
2022-11-29T11:01:47.396Z,21.45
2022-11-29T11:02:42.935Z,21.38
2022-11-29T11:03:38.482Z,21.40
2022-11-29T11:04:34.025Z,21.40
2022-11-29T11:05:29.580Z,21.43
2022-11-29T11:06:25.128Z,21.43
2022-11-29T11:07:20.682Z,21.37
2022-11-29T11:08:16.196Z,21.40
2022-11-29T11:09:12.231Z,21.35
2022-11-29T11:10:07.776Z,21.41
2022-11-29T11:11:03.815Z,21.40
2022-11-29T11:11:59.372Z,21.32
2022-11-29T11:12:54.906Z,21.29
2022-11-29T11:13:39.572Z,21.35
2022-11-29T11:14:35.110Z,21.41
2022-11-29T11:15:30.653Z,21.45
2022-11-29T11:16:26.215Z,21.29
2022-11-29T11:17:22.224Z,21.41
2022-11-29T11:18:17.757Z,21.40
2022-11-29T11:19:13.304Z,21.28
2022-11-29T11:20:08.858Z,21.38
2022-11-29T11:21:04.399Z,21.40
2022-11-29T11:21:59.955Z,21.41
2022-11-29T11:22:55.486Z,21.34
2022-11-29T11:23:42.915Z,21.37
2022-11-29T11:24:35.689Z,21.25
2022-11-29T11:25:31.222Z,21.29
2022-11-29T11:26:15.890Z,21.35
2022-11-29T11:27:11.435Z,21.40
2022-11-29T11:27:56.101Z,21.37
2022-11-29T11:28:51.649Z,21.41
2022-11-29T11:29:47.189Z,21.41
2022-11-29T11:30:42.768Z,21.35
2022-11-29T11:31:38.295Z,21.34
2022-11-29T11:32:33.842Z,21.40
2022-11-29T11:33:18.512Z,21.35
2022-11-29T11:34:14.036Z,21.35
2022-11-29T11:35:13.105Z,21.34
2022-11-29T11:36:05.616Z,21.35
2022-11-29T11:37:01.159Z,21.38
2022-11-29T11:37:56.720Z,21.37
2022-11-29T11:38:52.752Z,21.38
2022-11-29T11:39:37.213Z,21.40
2022-11-29T11:40:43.872Z,21.40
2022-11-29T11:41:28.298Z,21.43
2022-11-29T11:42:12.966Z,21.30
2022-11-29T11:43:08.524Z,21.37
2022-11-29T11:43:52.993Z,21.38
2022-11-29T11:44:48.847Z,21.34
2022-11-29T11:45:44.119Z,21.41
2022-11-29T11:46:39.655Z,21.41
2022-11-29T11:47:35.645Z,21.45
2022-11-29T11:48:20.316Z,21.43
2022-11-29T11:49:15.849Z,21.35
2022-11-29T11:50:11.384Z,21.48
2022-11-29T11:51:06.933Z,21.38
2022-11-29T11:52:02.479Z,21.45
2022-11-29T11:52:58.032Z,21.38